sensor_id;sensor_type;location;lat;lon;timestamp;temperature;humidity
52397;DHT22;38322;53.108;6.308;2023-03-01T06:01:49;-4.10;99.90
52397;DHT22;38322;53.108;6.308;2023-03-01T06:04:16;-4.10;99.90
52397;DHT22;38322;53.108;6.308;2023-03-01T06:06:42;-4.10;99.90
52397;DHT22;38322;53.108;6.308;2023-03-01T06:09:08;-4.10;99.90
52397;DHT22;38322;53.108;6.308;2023-03-01T06:11:36;-4.20;99.90
52397;DHT22;38322;53.108;6.308;2023-03-01T06:14:02;-4.20;99.90
52397;DHT22;38322;53.108;6.308;2023-03-01T06:16:28;-4.20;99.90
52397;DHT22;38322;53.108;6.308;2023-03-01T06:18:54;-4.20;99.90
52397;DHT22;38322;53.108;6.308;2023-03-01T06:21:20;-4.20;99.90
52397;DHT22;38322;53.108;6.308;2023-03-01T06:23:46;-4.20;99.90
52397;DHT22;38322;53.108;6.308;2023-03-01T06:26:11;-4.20;99.90
52397;DHT22;38322;53.108;6.308;2023-03-01T06:28:37;-4.20;99.90
52397;DHT22;38322;53.108;6.308;2023-03-01T06:31:03;-4.20;99.90
52397;DHT22;38322;53.108;6.308;2023-03-01T06:33:29;-4.30;99.90
52397;DHT22;38322;53.108;6.308;2023-03-01T06:35:55;-4.30;99.90
52397;DHT22;38322;53.108;6.308;2023-03-01T06:38:23;-4.30;99.90
52397;DHT22;38322;53.108;6.308;2023-03-01T06:40:53;-4.30;99.90
52397;DHT22;38322;53.108;6.308;2023-03-01T06:43:20;-4.40;99.90
52397;DHT22;38322;53.108;6.308;2023-03-01T06:45:46;-4.40;99.90
52397;DHT22;38322;53.108;6.308;2023-03-01T06:48:12;-4.30;99.90
52397;DHT22;38322;53.108;6.308;2023-03-01T06:50:38;-4.30;99.90
52397;DHT22;38322;53.108;6.308;2023-03-01T06:53:04;-4.30;99.90
52397;DHT22;38322;53.108;6.308;2023-03-01T06:55:31;-4.20;99.90
52397;DHT22;38322;53.108;6.308;2023-03-01T06:57:58;-4.10;99.90
52397;DHT22;38322;53.108;6.308;2023-03-01T07:00:25;-4.00;99.90
52397;DHT22;38322;53.108;6.308;2023-03-01T07:02:51;-3.90;99.90
52397;DHT22;38322;53.108;6.308;2023-03-01T07:05:17;-3.90;99.90
52397;DHT22;38322;53.108;6.308;2023-03-01T07:07:43;-3.80;99.90
52397;DHT22;38322;53.108;6.308;2023-03-01T07:10:10;-3.70;99.90
52397;DHT22;38322;53.108;6.308;2023-03-01T07:12:36;-3.70;99.90
52397;DHT22;38322;53.108;6.308;2023-03-01T07:15:03;-3.60;99.90
52397;DHT22;38322;53.108;6.308;2023-03-01T07:17:29;-3.50;99.90
52397;DHT22;38322;53.108;6.308;2023-03-01T07:19:55;-3.40;99.90
52397;DHT22;38322;53.108;6.308;2023-03-01T07:22:21;-3.30;99.90
52397;DHT22;38322;53.108;6.308;2023-03-01T07:24:47;-3.20;99.90
52397;DHT22;38322;53.108;6.308;2023-03-01T07:27:13;-3.00;99.90
52397;DHT22;38322;53.108;6.308;2023-03-01T07:29:38;-2.90;99.90
52397;DHT22;38322;53.108;6.308;2023-03-01T07:32:05;-2.80;99.90
52397;DHT22;38322;53.108;6.308;2023-03-01T07:34:31;-2.70;99.90
52397;DHT22;38322;53.108;6.308;2023-03-01T07:36:57;-2.60;99.90
52397;DHT22;38322;53.108;6.308;2023-03-01T07:39:23;-2.40;99.90
52397;DHT22;38322;53.108;6.308;2023-03-01T07:41:50;-2.30;99.90
52397;DHT22;38322;53.108;6.308;2023-03-01T07:44:15;-2.20;99.90
52397;DHT22;38322;53.108;6.308;2023-03-01T07:46:43;-2.10;99.90
52397;DHT22;38322;53.108;6.308;2023-03-01T07:49:09;-2.00;99.90
52397;DHT22;38322;53.108;6.308;2023-03-01T07:51:35;-1.80;99.90
52397;DHT22;38322;53.108;6.308;2023-03-01T07:54:01;-1.70;99.90
52397;DHT22;38322;53.108;6.308;2023-03-01T07:56:26;-1.50;99.90
52397;DHT22;38322;53.108;6.308;2023-03-01T07:58:52;-1.40;99.90
52397;DHT22;38322;53.108;6.308;2023-03-01T08:01:20;-1.20;99.90
52397;DHT22;38322;53.108;6.308;2023-03-01T08:03:46;-1.00;99.90
52397;DHT22;38322;53.108;6.308;2023-03-01T08:06:15;-0.90;99.90
52397;DHT22;38322;53.108;6.308;2023-03-01T08:08:41;-0.90;99.90
52397;DHT22;38322;53.108;6.308;2023-03-01T08:11:09;-0.80;99.90
52397;DHT22;38322;53.108;6.308;2023-03-01T08:13:35;-0.60;99.90
52397;DHT22;38322;53.108;6.308;2023-03-01T08:16:05;-0.50;99.90
52397;DHT22;38322;53.108;6.308;2023-03-01T08:18:31;-0.40;99.90
52397;DHT22;38322;53.108;6.308;2023-03-01T08:21:06;-0.30;99.90
52397;DHT22;38322;53.108;6.308;2023-03-01T08:23:32;-0.10;99.90
52397;DHT22;38322;53.108;6.308;2023-03-01T08:26:13;0.00;99.90
52397;DHT22;38322;53.108;6.308;2023-03-01T08:28:40;0.10;99.90
52397;DHT22;38322;53.108;6.308;2023-03-01T08:31:27;0.20;99.90
52397;DHT22;38322;53.108;6.308;2023-03-01T08:33:56;0.20;99.90
52397;DHT22;38322;53.108;6.308;2023-03-01T08:36:23;0.30;99.90
52397;DHT22;38322;53.108;6.308;2023-03-01T08:38:49;0.40;99.90
52397;DHT22;38322;53.108;6.308;2023-03-01T08:41:16;0.50;99.90
52397;DHT22;38322;53.108;6.308;2023-03-01T08:43:42;0.60;99.90
52397;DHT22;38322;53.108;6.308;2023-03-01T08:46:08;0.70;99.90
52397;DHT22;38322;53.108;6.308;2023-03-01T08:48:34;0.80;99.90
52397;DHT22;38322;53.108;6.308;2023-03-01T08:51:14;0.90;99.90
52397;DHT22;38322;53.108;6.308;2023-03-01T08:53:41;1.00;99.90
52397;DHT22;38322;53.108;6.308;2023-03-01T08:56:07;1.20;99.90
52397;DHT22;38322;53.108;6.308;2023-03-01T08:58:33;1.20;99.90
52397;DHT22;38322;53.108;6.308;2023-03-01T09:00:59;1.30;99.90
52397;DHT22;38322;53.108;6.308;2023-03-01T09:03:26;1.40;99.90
52397;DHT22;38322;53.108;6.308;2023-03-01T09:05:52;1.60;99.90
52397;DHT22;38322;53.108;6.308;2023-03-01T09:08:19;1.70;99.90
52397;DHT22;38322;53.108;6.308;2023-03-01T09:10:45;1.80;99.90
52397;DHT22;38322;53.108;6.308;2023-03-01T09:13:11;1.90;99.90
52397;DHT22;38322;53.108;6.308;2023-03-01T09:15:37;2.10;99.90
52397;DHT22;38322;53.108;6.308;2023-03-01T09:18:04;2.20;99.90
52397;DHT22;38322;53.108;6.308;2023-03-01T09:20:31;2.30;99.90
52397;DHT22;38322;53.108;6.308;2023-03-01T09:22:58;2.50;99.90
52397;DHT22;38322;53.108;6.308;2023-03-01T09:25:24;2.60;99.90
52397;DHT22;38322;53.108;6.308;2023-03-01T09:27:52;2.60;99.90
52397;DHT22;38322;53.108;6.308;2023-03-01T09:30:18;2.70;99.90
52397;DHT22;38322;53.108;6.308;2023-03-01T09:32:44;2.80;99.90
52397;DHT22;38322;53.108;6.308;2023-03-01T09:35:11;2.90;99.90
52397;DHT22;38322;53.108;6.308;2023-03-01T09:37:37;3.00;99.90
52397;DHT22;38322;53.108;6.308;2023-03-01T09:40:05;3.20;99.90
52397;DHT22;38322;53.108;6.308;2023-03-01T09:42:34;3.30;99.90
52397;DHT22;38322;53.108;6.308;2023-03-01T09:45:14;3.40;99.90
52397;DHT22;38322;53.108;6.308;2023-03-01T09:47:45;3.50;99.90
52397;DHT22;38322;53.108;6.308;2023-03-01T09:50:16;3.60;99.90
52397;DHT22;38322;53.108;6.308;2023-03-01T09:52:44;3.60;99.90
52397;DHT22;38322;53.108;6.308;2023-03-01T09:55:14;3.70;99.90
52397;DHT22;38322;53.108;6.308;2023-03-01T09:57:54;3.80;99.90
52397;DHT22;38322;53.108;6.308;2023-03-01T10:00:42;3.90;99.90
52397;DHT22;38322;53.108;6.308;2023-03-01T10:08:38;4.00;99.90
52397;DHT22;38322;53.108;6.308;2023-03-01T10:11:19;4.10;99.90
52397;DHT22;38322;53.108;6.308;2023-03-01T10:13:59;4.10;99.90
52397;DHT22;38322;53.108;6.308;2023-03-01T10:16:36;4.20;99.90
52397;DHT22;38322;53.108;6.308;2023-03-01T10:19:05;4.30;99.90
52397;DHT22;38322;53.108;6.308;2023-03-01T10:21:36;4.40;99.90
52397;DHT22;38322;53.108;6.308;2023-03-01T10:24:15;4.40;99.90
52397;DHT22;38322;53.108;6.308;2023-03-01T10:26:48;4.50;99.90
52397;DHT22;38322;53.108;6.308;2023-03-01T10:29:17;4.70;99.90
52397;DHT22;38322;53.108;6.308;2023-03-01T10:31:49;4.70;99.90
52397;DHT22;38322;53.108;6.308;2023-03-01T10:34:18;4.70;99.90
52397;DHT22;38322;53.108;6.308;2023-03-01T10:36:47;4.80;99.90
52397;DHT22;38322;53.108;6.308;2023-03-01T10:39:17;5.00;99.90
52397;DHT22;38322;53.108;6.308;2023-03-01T10:41:59;5.00;99.90
52397;DHT22;38322;53.108;6.308;2023-03-01T10:44:46;5.10;99.90
52397;DHT22;38322;53.108;6.308;2023-03-01T10:47:16;5.20;99.90
52397;DHT22;38322;53.108;6.308;2023-03-01T10:49:54;5.20;99.90
52397;DHT22;38322;53.108;6.308;2023-03-01T10:52:24;5.20;99.90
52397;DHT22;38322;53.108;6.308;2023-03-01T10:54:54;5.20;99.90
52397;DHT22;38322;53.108;6.308;2023-03-01T10:57:29;5.30;99.90
52397;DHT22;38322;53.108;6.308;2023-03-01T11:00:22;5.40;99.90
52397;DHT22;38322;53.108;6.308;2023-03-01T11:02:50;5.50;99.90
52397;DHT22;38322;53.108;6.308;2023-03-01T11:05:21;5.50;99.90
52397;DHT22;38322;53.108;6.308;2023-03-01T11:07:58;5.50;99.90
52397;DHT22;38322;53.108;6.308;2023-03-01T11:10:31;5.50;99.90
52397;DHT22;38322;53.108;6.308;2023-03-01T11:13:18;5.60;99.90
52397;DHT22;38322;53.108;6.308;2023-03-01T11:16:00;5.60;99.90
52397;DHT22;38322;53.108;6.308;2023-03-01T11:18:29;5.70;99.90
52397;DHT22;38322;53.108;6.308;2023-03-01T11:20:57;5.70;99.90
52397;DHT22;38322;53.108;6.308;2023-03-01T11:23:24;5.70;99.90
52397;DHT22;38322;53.108;6.308;2023-03-01T11:25:55;5.80;99.90
52397;DHT22;38322;53.108;6.308;2023-03-01T11:28:22;5.90;99.90
52397;DHT22;38322;53.108;6.308;2023-03-01T11:30:53;6.00;99.90
52397;DHT22;38322;53.108;6.308;2023-03-01T11:33:50;6.00;99.90
52397;DHT22;38322;53.108;6.308;2023-03-01T11:36:34;6.00;99.90
52397;DHT22;38322;53.108;6.308;2023-03-01T11:39:08;6.00;99.90
52397;DHT22;38322;53.108;6.308;2023-03-01T11:41:40;6.10;99.90
52397;DHT22;38322;53.108;6.308;2023-03-01T11:44:10;6.10;99.90
52397;DHT22;38322;53.108;6.308;2023-03-01T11:47:06;6.10;99.90
52397;DHT22;38322;53.108;6.308;2023-03-01T11:49:55;6.20;99.90
52397;DHT22;38322;53.108;6.308;2023-03-01T11:52:44;6.20;99.90
52397;DHT22;38322;53.108;6.308;2023-03-01T11:55:43;6.20;99.90
52397;DHT22;38322;53.108;6.308;2023-03-01T11:58:27;6.10;99.90
52397;DHT22;38322;53.108;6.308;2023-03-01T12:03:42;6.20;99.90
52397;DHT22;38322;53.108;6.308;2023-03-01T12:06:34;6.30;99.90
52397;DHT22;38322;53.108;6.308;2023-03-01T12:09:09;6.30;99.90
52397;DHT22;38322;53.108;6.308;2023-03-01T12:11:47;6.40;99.90
52397;DHT22;38322;53.108;6.308;2023-03-01T12:14:30;6.40;99.90
52397;DHT22;38322;53.108;6.308;2023-03-01T12:17:27;6.30;99.90
52397;DHT22;38322;53.108;6.308;2023-03-01T12:20:22;6.30;99.90
52397;DHT22;38322;53.108;6.308;2023-03-01T12:23:02;6.40;99.90
52397;DHT22;38322;53.108;6.308;2023-03-01T12:25:39;6.40;99.90
52397;DHT22;38322;53.108;6.308;2023-03-01T12:28:29;6.40;99.90
52397;DHT22;38322;53.108;6.308;2023-03-01T12:31:02;6.40;99.90
52397;DHT22;38322;53.108;6.308;2023-03-01T12:41:46;6.50;99.90
52397;DHT22;38322;53.108;6.308;2023-03-01T12:44:39;6.50;99.90
52397;DHT22;38322;53.108;6.308;2023-03-01T12:47:31;6.60;99.90
52397;DHT22;38322;53.108;6.308;2023-03-01T12:50:17;6.60;99.90
52397;DHT22;38322;53.108;6.308;2023-03-01T12:52:49;6.60;99.90
52397;DHT22;38322;53.108;6.308;2023-03-01T12:55:29;6.60;99.90
52397;DHT22;38322;53.108;6.308;2023-03-01T12:58:21;6.60;99.90
52397;DHT22;38322;53.108;6.308;2023-03-01T13:01:19;6.70;99.90
52397;DHT22;38322;53.108;6.308;2023-03-01T13:03:54;6.70;99.90
52397;DHT22;38322;53.108;6.308;2023-03-01T13:09:03;6.60;99.90
52397;DHT22;38322;53.108;6.308;2023-03-01T13:11:30;6.70;99.90
52397;DHT22;38322;53.108;6.308;2023-03-01T13:16:51;6.80;99.90
52397;DHT22;38322;53.108;6.308;2023-03-01T13:19:19;6.80;99.90
52397;DHT22;38322;53.108;6.308;2023-03-01T13:21:47;6.80;99.90
52397;DHT22;38322;53.108;6.308;2023-03-01T13:34:59;6.90;99.90
52397;DHT22;38322;53.108;6.308;2023-03-01T13:37:27;6.90;99.90
52397;DHT22;38322;53.108;6.308;2023-03-01T13:39:56;6.90;99.90
52397;DHT22;38322;53.108;6.308;2023-03-01T13:44:57;6.90;99.90
52397;DHT22;38322;53.108;6.308;2023-03-01T13:47:23;6.80;99.90
52397;DHT22;38322;53.108;6.308;2023-03-01T13:49:55;6.80;99.90
52397;DHT22;38322;53.108;6.308;2023-03-01T13:52:45;6.80;99.90
52397;DHT22;38322;53.108;6.308;2023-03-01T13:55:23;6.80;99.90
52397;DHT22;38322;53.108;6.308;2023-03-01T13:57:55;6.80;99.90
52397;DHT22;38322;53.108;6.308;2023-03-01T14:00:31;6.80;99.90
52397;DHT22;38322;53.108;6.308;2023-03-01T14:03:10;6.80;99.90
52397;DHT22;38322;53.108;6.308;2023-03-01T14:05:38;6.90;99.90
52397;DHT22;38322;53.108;6.308;2023-03-01T14:08:05;6.80;99.90
52397;DHT22;38322;53.108;6.308;2023-03-01T14:10:41;7.00;99.90
52397;DHT22;38322;53.108;6.308;2023-03-01T14:13:28;7.00;99.90
52397;DHT22;38322;53.108;6.308;2023-03-01T14:16:07;7.00;99.90
52397;DHT22;38322;53.108;6.308;2023-03-01T14:21:17;7.00;99.90
52397;DHT22;38322;53.108;6.308;2023-03-01T14:23:43;6.90;99.90
52397;DHT22;38322;53.108;6.308;2023-03-01T14:26:10;6.90;99.90
52397;DHT22;38322;53.108;6.308;2023-03-01T14:28:38;6.90;99.90
52397;DHT22;38322;53.108;6.308;2023-03-01T14:31:31;6.90;99.90
52397;DHT22;38322;53.108;6.308;2023-03-01T14:33:59;6.90;99.90
52397;DHT22;38322;53.108;6.308;2023-03-01T14:36:27;6.90;99.90
52397;DHT22;38322;53.108;6.308;2023-03-01T14:38:53;6.90;99.90
52397;DHT22;38322;53.108;6.308;2023-03-01T14:41:23;6.90;99.90
52397;DHT22;38322;53.108;6.308;2023-03-01T14:43:53;6.90;99.90
52397;DHT22;38322;53.108;6.308;2023-03-01T14:46:35;6.90;99.90
52397;DHT22;38322;53.108;6.308;2023-03-01T14:49:06;6.80;99.90
52397;DHT22;38322;53.108;6.308;2023-03-01T14:51:38;6.90;99.90
52397;DHT22;38322;53.108;6.308;2023-03-01T14:54:24;6.90;99.90
52397;DHT22;38322;53.108;6.308;2023-03-01T14:56:52;6.90;99.90
52397;DHT22;38322;53.108;6.308;2023-03-01T14:59:23;6.90;99.90
52397;DHT22;38322;53.108;6.308;2023-03-01T15:01:51;6.90;99.90
52397;DHT22;38322;53.108;6.308;2023-03-01T15:04:19;6.80;99.90
52397;DHT22;38322;53.108;6.308;2023-03-01T15:06:46;6.80;99.90
52397;DHT22;38322;53.108;6.308;2023-03-01T15:09:15;6.80;99.90
52397;DHT22;38322;53.108;6.308;2023-03-01T15:11:42;6.80;99.90
52397;DHT22;38322;53.108;6.308;2023-03-01T15:14:38;6.70;99.90
52397;DHT22;38322;53.108;6.308;2023-03-01T15:20:02;6.80;99.90
52397;DHT22;38322;53.108;6.308;2023-03-01T15:22:29;6.70;99.90
52397;DHT22;38322;53.108;6.308;2023-03-01T15:24:55;6.80;99.90
52397;DHT22;38322;53.108;6.308;2023-03-01T15:27:24;6.70;99.90
52397;DHT22;38322;53.108;6.308;2023-03-01T15:29:54;6.60;99.90
52397;DHT22;38322;53.108;6.308;2023-03-01T15:32:31;6.60;99.90
52397;DHT22;38322;53.108;6.308;2023-03-01T15:34:58;6.60;99.90
52397;DHT22;38322;53.108;6.308;2023-03-01T15:37:45;6.60;99.90
52397;DHT22;38322;53.108;6.308;2023-03-01T15:40:27;6.60;99.90
52397;DHT22;38322;53.108;6.308;2023-03-01T15:43:04;6.50;99.90
52397;DHT22;38322;53.108;6.308;2023-03-01T15:45:32;6.50;99.90
52397;DHT22;38322;53.108;6.308;2023-03-01T15:48:02;6.40;99.90
52397;DHT22;38322;53.108;6.308;2023-03-01T15:50:32;6.40;99.90
52397;DHT22;38322;53.108;6.308;2023-03-01T15:53:00;6.40;99.90
52397;DHT22;38322;53.108;6.308;2023-03-01T15:55:29;6.40;99.90
52397;DHT22;38322;53.108;6.308;2023-03-01T15:58:13;6.40;99.90
52397;DHT22;38322;53.108;6.308;2023-03-01T16:00:39;6.30;99.90
52397;DHT22;38322;53.108;6.308;2023-03-01T16:03:05;6.30;99.90
52397;DHT22;38322;53.108;6.308;2023-03-01T16:05:34;6.20;99.90
52397;DHT22;38322;53.108;6.308;2023-03-01T16:08:00;6.20;99.90
52397;DHT22;38322;53.108;6.308;2023-03-01T16:10:27;6.20;99.90
52397;DHT22;38322;53.108;6.308;2023-03-01T16:12:53;6.20;99.90
52397;DHT22;38322;53.108;6.308;2023-03-01T16:17:49;6.00;99.90
52397;DHT22;38322;53.108;6.308;2023-03-01T16:20:16;6.00;99.90
52397;DHT22;38322;53.108;6.308;2023-03-01T16:22:43;6.00;99.90
52397;DHT22;38322;53.108;6.308;2023-03-01T16:25:11;6.00;99.90
52397;DHT22;38322;53.108;6.308;2023-03-01T16:27:38;5.90;99.90
52397;DHT22;38322;53.108;6.308;2023-03-01T16:30:05;5.90;99.90
52397;DHT22;38322;53.108;6.308;2023-03-01T16:32:31;5.90;99.90
52397;DHT22;38322;53.108;6.308;2023-03-01T16:34:57;5.80;99.90
52397;DHT22;38322;53.108;6.308;2023-03-01T16:37:23;5.80;99.90
52397;DHT22;38322;53.108;6.308;2023-03-01T16:39:49;5.70;99.90
52397;DHT22;38322;53.108;6.308;2023-03-01T16:42:17;5.70;99.90
52397;DHT22;38322;53.108;6.308;2023-03-01T16:44:43;5.60;99.90
52397;DHT22;38322;53.108;6.308;2023-03-01T16:47:09;5.60;99.90
52397;DHT22;38322;53.108;6.308;2023-03-01T16:49:35;5.50;99.90
52397;DHT22;38322;53.108;6.308;2023-03-01T16:52:01;5.50;99.90
52397;DHT22;38322;53.108;6.308;2023-03-01T16:54:26;5.40;99.90
52397;DHT22;38322;53.108;6.308;2023-03-01T16:56:52;5.30;99.90
52397;DHT22;38322;53.108;6.308;2023-03-01T16:59:18;5.30;99.90
52397;DHT22;38322;53.108;6.308;2023-03-01T17:01:44;5.20;99.90
52397;DHT22;38322;53.108;6.308;2023-03-01T17:04:12;5.00;99.90
52397;DHT22;38322;53.108;6.308;2023-03-01T17:06:38;4.90;99.90
52397;DHT22;38322;53.108;6.308;2023-03-01T17:09:03;4.80;99.90
52397;DHT22;38322;53.108;6.308;2023-03-01T17:11:29;4.70;99.90
52397;DHT22;38322;53.108;6.308;2023-03-01T17:13:55;4.60;99.90
52397;DHT22;38322;53.108;6.308;2023-03-01T17:16:22;4.60;99.90
52397;DHT22;38322;53.108;6.308;2023-03-01T17:18:48;4.60;99.90
52397;DHT22;38322;53.108;6.308;2023-03-01T17:21:14;4.50;99.90
52397;DHT22;38322;53.108;6.308;2023-03-01T17:23:42;4.40;99.90
52397;DHT22;38322;53.108;6.308;2023-03-01T17:26:08;4.30;99.90
52397;DHT22;38322;53.108;6.308;2023-03-01T17:28:35;4.30;99.90
52397;DHT22;38322;53.108;6.308;2023-03-01T17:31:03;4.20;99.90
52397;DHT22;38322;53.108;6.308;2023-03-01T17:33:29;4.10;99.90
52397;DHT22;38322;53.108;6.308;2023-03-01T17:35:56;4.00;99.90
52397;DHT22;38322;53.108;6.308;2023-03-01T17:38:22;4.00;99.90
52397;DHT22;38322;53.108;6.308;2023-03-01T17:40:48;3.90;99.90
52397;DHT22;38322;53.108;6.308;2023-03-01T17:43:15;3.80;99.90
52397;DHT22;38322;53.108;6.308;2023-03-01T17:45:43;3.80;99.90
52397;DHT22;38322;53.108;6.308;2023-03-01T17:48:14;3.80;99.90
52397;DHT22;38322;53.108;6.308;2023-03-01T17:50:40;3.70;99.90
52397;DHT22;38322;53.108;6.308;2023-03-01T17:53:07;3.70;99.90
52397;DHT22;38322;53.108;6.308;2023-03-01T17:55:36;3.60;99.90
52397;DHT22;38322;53.108;6.308;2023-03-01T17:58:02;3.60;99.90
52397;DHT22;38322;53.108;6.308;2023-03-01T18:00:28;3.60;99.90
52397;DHT22;38322;53.108;6.308;2023-03-01T18:02:54;3.60;99.90
52397;DHT22;38322;53.108;6.308;2023-03-01T18:05:20;3.50;99.90
52397;DHT22;38322;53.108;6.308;2023-03-01T18:07:46;3.50;99.90
52397;DHT22;38322;53.108;6.308;2023-03-01T18:10:12;3.50;99.90
52397;DHT22;38322;53.108;6.308;2023-03-01T18:12:38;3.40;99.90
52397;DHT22;38322;53.108;6.308;2023-03-01T18:15:06;3.40;99.90
52397;DHT22;38322;53.108;6.308;2023-03-01T18:17:32;3.30;99.90
52397;DHT22;38322;53.108;6.308;2023-03-01T18:19:58;3.30;99.90
52397;DHT22;38322;53.108;6.308;2023-03-01T18:22:24;3.30;99.90
52397;DHT22;38322;53.108;6.308;2023-03-01T18:24:50;3.40;99.90
52397;DHT22;38322;53.108;6.308;2023-03-01T18:27:16;3.50;99.90
52397;DHT22;38322;53.108;6.308;2023-03-01T18:29:42;3.40;99.90
52397;DHT22;38322;53.108;6.308;2023-03-01T18:32:08;3.40;99.90
52397;DHT22;38322;53.108;6.308;2023-03-01T18:34:33;3.50;99.90
52397;DHT22;38322;53.108;6.308;2023-03-01T18:37:00;3.50;99.90
52397;DHT22;38322;53.108;6.308;2023-03-01T18:39:26;3.70;99.90
52397;DHT22;38322;53.108;6.308;2023-03-01T18:41:51;3.70;99.90
52397;DHT22;38322;53.108;6.308;2023-03-01T18:44:17;3.80;99.90
52397;DHT22;38322;53.108;6.308;2023-03-01T18:46:43;3.70;99.90
52397;DHT22;38322;53.108;6.308;2023-03-01T18:49:12;3.70;99.90
52397;DHT22;38322;53.108;6.308;2023-03-01T18:51:38;3.70;99.90
52397;DHT22;38322;53.108;6.308;2023-03-01T18:54:05;3.60;99.90
52397;DHT22;38322;53.108;6.308;2023-03-01T18:56:32;3.40;99.90
52397;DHT22;38322;53.108;6.308;2023-03-01T18:58:58;3.40;99.90
52397;DHT22;38322;53.108;6.308;2023-03-01T19:01:27;3.30;99.90
52397;DHT22;38322;53.108;6.308;2023-03-01T19:03:54;3.20;99.90
52397;DHT22;38322;53.108;6.308;2023-03-01T19:06:21;3.20;99.90
52397;DHT22;38322;53.108;6.308;2023-03-01T19:08:48;3.10;99.90
52397;DHT22;38322;53.108;6.308;2023-03-01T19:11:14;3.00;99.90
52397;DHT22;38322;53.108;6.308;2023-03-01T19:13:43;3.00;99.90
52397;DHT22;38322;53.108;6.308;2023-03-01T19:16:13;2.90;99.90
52397;DHT22;38322;53.108;6.308;2023-03-01T19:18:40;2.80;99.90
52397;DHT22;38322;53.108;6.308;2023-03-01T19:21:08;2.90;99.90
52397;DHT22;38322;53.108;6.308;2023-03-01T19:23:34;2.80;99.90
52397;DHT22;38322;53.108;6.308;2023-03-01T19:26:02;2.80;99.90
52397;DHT22;38322;53.108;6.308;2023-03-01T19:28:28;2.80;99.90
52397;DHT22;38322;53.108;6.308;2023-03-01T19:31:03;2.70;99.90
52397;DHT22;38322;53.108;6.308;2023-03-01T19:33:31;2.60;99.90
52397;DHT22;38322;53.108;6.308;2023-03-01T19:35:57;2.60;99.90
52397;DHT22;38322;53.108;6.308;2023-03-01T19:38:24;2.60;99.90
52397;DHT22;38322;53.108;6.308;2023-03-01T19:40:50;2.50;99.90
52397;DHT22;38322;53.108;6.308;2023-03-01T19:43:16;2.50;99.90
52397;DHT22;38322;53.108;6.308;2023-03-01T19:45:42;2.40;99.90
52397;DHT22;38322;53.108;6.308;2023-03-01T19:48:08;2.40;99.90
52397;DHT22;38322;53.108;6.308;2023-03-01T19:50:34;2.40;99.90
52397;DHT22;38322;53.108;6.308;2023-03-01T19:53:00;2.40;99.90
52397;DHT22;38322;53.108;6.308;2023-03-01T19:55:26;2.40;99.90
52397;DHT22;38322;53.108;6.308;2023-03-01T19:57:52;2.40;99.90
52397;DHT22;38322;53.108;6.308;2023-03-01T20:00:18;2.40;99.90
52397;DHT22;38322;53.108;6.308;2023-03-01T20:02:44;2.30;99.90
52397;DHT22;38322;53.108;6.308;2023-03-01T20:05:09;2.30;99.90
52397;DHT22;38322;53.108;6.308;2023-03-01T20:07:35;2.40;99.90
52397;DHT22;38322;53.108;6.308;2023-03-01T20:10:01;2.40;99.90
52397;DHT22;38322;53.108;6.308;2023-03-01T20:12:27;2.40;99.90
52397;DHT22;38322;53.108;6.308;2023-03-01T20:14:53;2.40;99.90
52397;DHT22;38322;53.108;6.308;2023-03-01T20:17:21;2.40;99.90
52397;DHT22;38322;53.108;6.308;2023-03-01T20:19:47;2.50;99.90
52397;DHT22;38322;53.108;6.308;2023-03-01T20:22:12;2.50;99.90
52397;DHT22;38322;53.108;6.308;2023-03-01T20:24:41;2.40;99.90
52397;DHT22;38322;53.108;6.308;2023-03-01T20:27:07;2.50;99.90
52397;DHT22;38322;53.108;6.308;2023-03-01T20:29:33;2.50;99.90
52397;DHT22;38322;53.108;6.308;2023-03-01T20:31:59;2.50;99.90
52397;DHT22;38322;53.108;6.308;2023-03-01T20:34:24;2.50;99.90
52397;DHT22;38322;53.108;6.308;2023-03-01T20:36:50;2.50;99.90
52397;DHT22;38322;53.108;6.308;2023-03-01T20:39:16;2.50;99.90
52397;DHT22;38322;53.108;6.308;2023-03-01T20:41:42;2.50;99.90
52397;DHT22;38322;53.108;6.308;2023-03-01T20:44:08;2.50;99.90
52397;DHT22;38322;53.108;6.308;2023-03-01T20:46:35;2.50;99.90
52397;DHT22;38322;53.108;6.308;2023-03-01T20:49:01;2.60;99.90
52397;DHT22;38322;53.108;6.308;2023-03-01T20:51:27;2.60;99.90
52397;DHT22;38322;53.108;6.308;2023-03-01T20:53:53;2.60;99.90
52397;DHT22;38322;53.108;6.308;2023-03-01T20:56:20;2.60;99.90
52397;DHT22;38322;53.108;6.308;2023-03-01T20:58:46;2.60;99.90
